Time;durP1;ratioP1;P1;durP2;ratioP2;P2;SDS_P1;SDS_P2;PMS_P1;PMS_P2;Temp;Humidity;BMP_temperature;BMP_pressure;BME280_temperature;BME280_humidity;BME280_pressure;Samples;Min_cycle;Max_cycle;Signal;HPM_P1;HPM_P2
2022/03/21 00:03:35;;;;;;;21.00;10.53;;;;;3.90;97713.00;;;;8368986;28;20636;-69
2022/03/21 00:07:38;;;;;;;19.07;10.30;;;;;3.80;97710.00;;;;8367124;28;20237;-70
2022/03/21 00:11:41;;;;;;;22.77;9.93;;;;;3.70;97708.00;;;;8374535;28;20312;-73
2022/03/21 00:15:44;;;;;;;21.50;10.43;;;;;3.60;97721.00;;;;8370706;28;20318;-72
2022/03/21 00:19:49;;;;;;;23.50;10.33;;;;;3.50;97718.00;;;;8369467;28;20223;-71
2022/03/21 00:23:51;;;;;;;22.63;11.00;;;;;3.50;97712.00;;;;8365788;28;20573;-70
2022/03/21 00:27:55;;;;;;;22.33;9.83;;;;;3.40;97720.00;;;;8364503;28;20244;-72
2022/03/21 00:31:58;;;;;;;23.20;9.83;;;;;3.50;97714.00;;;;8370338;28;20358;-71
2022/03/21 00:36:02;;;;;;;20.60;10.30;;;;;3.40;97710.00;;;;8365420;28;20224;-68
2022/03/21 00:40:07;;;;;;;22.17;10.20;;;;;3.50;97711.00;;;;8372759;28;20232;-67
2022/03/21 00:44:10;;;;;;;19.57;10.07;;;;;3.40;97708.00;;;;8367426;28;20220;-70
2022/03/21 00:48:13;;;;;;;20.43;10.50;;;;;3.40;97708.00;;;;8376477;28;20290;-69
2022/03/21 00:52:17;;;;;;;23.30;9.90;;;;;3.20;97707.00;;;;8374964;28;20223;-73
2022/03/21 00:56:20;;;;;;;20.60;10.00;;;;;3.20;97714.00;;;;8370281;28;20266;-71
2022/03/21 01:00:25;;;;;;;22.27;9.73;;;;;3.10;97709.00;;;;8371606;28;20289;-72
2022/03/21 01:04:28;;;;;;;24.17;10.23;;;;;3.10;97705.00;;;;8366640;28;21062;-78
2022/03/21 01:08:33;;;;;;;23.57;10.20;;;;;3.10;97714.00;;;;8369316;28;20231;-74
2022/03/21 01:12:36;;;;;;;31.30;10.13;;;;;3.00;97716.00;;;;8367864;28;20224;-75
2022/03/21 01:16:41;;;;;;;23.00;9.97;;;;;2.90;97717.00;;;;8371745;28;20229;-73
2022/03/21 01:20:44;;;;;;;20.07;9.77;;;;;2.90;97715.00;;;;8377400;28;20223;-69
2022/03/21 01:24:48;;;;;;;22.10;10.83;;;;;2.90;97708.00;;;;8372853;28;20220;-77
2022/03/21 01:28:51;;;;;;;24.93;10.87;;;;;2.90;97725.00;;;;8367867;28;20693;-73
2022/03/21 01:32:54;;;;;;;21.47;10.20;;;;;2.80;97713.00;;;;8357251;28;20227;-67
2022/03/21 01:36:57;;;;;;;19.77;10.63;;;;;2.80;97721.00;;;;8358218;28;20237;-74
2022/03/21 01:41:06;;;;;;;27.07;10.70;;;;;2.70;97725.00;;;;8362998;28;20287;-69
2022/03/21 01:45:10;;;;;;;22.50;11.03;;;;;2.70;97721.00;;;;8369206;28;20982;-72
2022/03/21 01:49:13;;;;;;;23.67;10.77;;;;;2.60;97720.00;;;;8370614;28;20227;-70
2022/03/21 01:57:38;;;;;;;25.43;10.50;;;;;2.50;97718.00;;;;8380347;28;20232;-72
2022/03/21 02:05:59;;;;;;;26.13;10.37;;;;;2.40;97717.00;;;;8343276;27;20584;-68
2022/03/21 02:10:03;;;;;;;21.47;10.20;;;;;2.40;97708.00;;;;8341139;28;20232;-70
2022/03/21 02:14:08;;;;;;;23.83;10.27;;;;;2.30;97703.00;;;;8332126;28;20233;-72
2022/03/21 02:18:12;;;;;;;23.37;10.40;;;;;2.20;97703.00;;;;8335217;28;20274;-74
2022/03/21 02:22:28;;;;;;;18.57;9.70;;;;;2.20;97698.00;;;;8331585;28;20748;-71
2022/03/21 02:26:32;;;;;;;23.20;10.90;;;;;2.20;97707.00;;;;8335491;28;20235;-72
2022/03/21 02:30:39;;;;;;;22.63;9.53;;;;;2.20;97713.00;;;;8339962;28;20232;-71
2022/03/21 02:34:42;;;;;;;19.93;9.70;;;;;2.20;97712.00;;;;8333358;28;20229;-70
2022/03/21 02:38:46;;;;;;;19.27;9.63;;;;;2.10;97716.00;;;;8343022;28;20241;-72
2022/03/21 02:42:50;;;;;;;19.80;9.13;;;;;2.10;97714.00;;;;8323787;28;20824;-68
2022/03/21 02:46:57;;;;;;;20.40;9.93;;;;;2.00;97703.00;;;;8331508;28;20232;-68
2022/03/21 02:51:02;;;;;;;19.60;8.77;;;;;2.00;97708.00;;;;8333693;28;20243;-67
2022/03/21 02:55:05;;;;;;;19.53;9.50;;;;;2.00;97702.00;;;;8333746;28;20275;-69
2022/03/21 02:59:10;;;;;;;20.37;9.83;;;;;1.90;97700.00;;;;8342174;28;20282;-66
2022/03/21 03:03:13;;;;;;;20.87;9.53;;;;;1.90;97700.00;;;;8341475;23;20229;-68
2022/03/21 03:07:15;;;;;;;22.20;9.57;;;;;1.90;97714.00;;;;8319700;28;20236;-67
2022/03/21 03:11:18;;;;;;;21.60;9.30;;;;;1.90;97708.00;;;;8340788;28;20624;-69
2022/03/21 03:15:23;;;;;;;21.40;9.10;;;;;1.90;97721.00;;;;8298862;28;20237;-68
2022/03/21 03:19:26;;;;;;;18.47;9.07;;;;;1.80;97720.00;;;;8284520;28;20233;-69
2022/03/21 03:23:32;;;;;;;21.13;10.23;;;;;1.80;97722.00;;;;8271959;28;20584;-68
2022/03/21 03:27:35;;;;;;;21.37;9.87;;;;;1.80;97730.00;;;;8281185;28;21685;-68
2022/03/21 03:31:40;;;;;;;17.60;9.20;;;;;1.70;97725.00;;;;8274662;28;20235;-67
2022/03/21 03:35:43;;;;;;;22.87;9.70;;;;;1.60;97724.00;;;;8280224;28;20218;-68
2022/03/21 03:39:47;;;;;;;24.83;9.60;;;;;1.50;97720.00;;;;8272016;28;20759;-66
2022/03/21 03:43:49;;;;;;;20.17;10.20;;;;;1.40;97728.00;;;;8285262;28;20329;-65
2022/03/21 03:47:54;;;;;;;20.10;9.37;;;;;1.30;97731.00;;;;8274549;28;20313;-65
2022/03/21 03:51:57;;;;;;;25.50;10.60;;;;;1.20;97728.00;;;;8282037;28;20251;-65
2022/03/21 03:56:00;;;;;;;20.87;9.93;;;;;1.20;97728.00;;;;8277876;28;20229;-67
2022/03/21 04:00:04;;;;;;;27.37;10.00;;;;;1.10;97728.00;;;;8270341;28;20229;-66
2022/03/21 04:04:08;;;;;;;23.77;10.03;;;;;1.20;97731.00;;;;8273662;28;20234;-64
2022/03/21 04:08:11;;;;;;;19.33;9.10;;;;;1.20;97740.00;;;;8265181;28;20230;-64
2022/03/21 04:12:14;;;;;;;26.33;10.63;;;;;1.10;97727.00;;;;8279531;28;20218;-63
2022/03/21 04:16:18;;;;;;;26.67;10.57;;;;;1.10;97717.00;;;;8275346;28;20233;-63
2022/03/21 04:20:23;;;;;;;21.17;10.03;;;;;1.00;97724.00;;;;8273477;28;20241;-64
2022/03/21 04:24:26;;;;;;;21.60;10.50;;;;;1.00;97716.00;;;;8270362;28;20229;-63
2022/03/21 04:28:29;;;;;;;24.20;9.97;;;;;0.90;97714.00;;;;8266155;28;20222;-65
2022/03/21 04:32:32;;;;;;;19.57;9.80;;;;;0.80;97726.00;;;;8272107;28;20218;-63
2022/03/21 04:36:36;;;;;;;20.47;9.43;;;;;0.80;97728.00;;;;8273740;28;20242;-66
2022/03/21 04:40:39;;;;;;;16.97;8.90;;;;;0.80;97726.00;;;;8274804;28;20217;-65
2022/03/21 04:44:44;;;;;;;20.93;9.07;;;;;0.80;97735.00;;;;8274218;28;20234;-64
2022/03/21 04:48:49;;;;;;;20.53;9.57;;;;;0.80;97737.00;;;;8278960;28;20218;-65
2022/03/21 04:52:54;;;;;;;25.57;9.67;;;;;0.80;97735.00;;;;8267509;28;20237;-66
2022/03/21 04:56:57;;;;;;;22.63;10.47;;;;;0.80;97737.00;;;;8274167;28;20229;-64
2022/03/21 05:01:00;;;;;;;22.03;10.40;;;;;0.80;97747.00;;;;8278061;28;20572;-65
2022/03/21 05:05:04;;;;;;;24.70;10.27;;;;;0.80;97739.00;;;;8266013;28;20917;-65
2022/03/21 05:09:08;;;;;;;21.07;9.57;;;;;0.70;97753.00;;;;8272295;28;20234;-65
2022/03/21 05:13:11;;;;;;;20.77;9.80;;;;;0.70;97755.00;;;;8275143;28;20244;-63
2022/03/21 05:17:17;;;;;;;22.43;9.47;;;;;0.60;97757.00;;;;8265830;28;20957;-65
2022/03/21 05:21:20;;;;;;;21.17;9.00;;;;;0.60;97762.00;;;;8273676;28;20218;-63
2022/03/21 05:38:27;;;;;;;19.60;9.83;;;;;0.50;97768.00;;;;8266985;28;20972;-66
2022/03/21 05:42:31;;;;;;;20.03;10.53;;;;;0.40;97762.00;;;;8247138;28;20222;-65
2022/03/21 05:46:34;;;;;;;23.10;10.53;;;;;0.30;97757.00;;;;8267575;28;20241;-67
2022/03/21 05:50:38;;;;;;;22.13;10.43;;;;;0.30;97762.00;;;;8267553;28;20226;-65
2022/03/21 05:54:40;;;;;;;21.47;10.60;;;;;0.30;97767.00;;;;8281441;28;20277;-65
2022/03/21 05:58:45;;;;;;;21.50;10.53;;;;;0.30;97768.00;;;;8274589;28;20235;-65
2022/03/21 06:02:48;;;;;;;26.70;10.30;;;;;0.30;97766.00;;;;8276484;28;20239;-67
2022/03/21 06:06:52;;;;;;;22.40;10.50;;;;;0.40;97777.00;;;;8278361;28;20760;-65
2022/03/21 06:11:03;;;;;;;20.93;9.27;;;;;0.60;97782.00;;;;8271576;28;20645;-65
2022/03/21 06:15:09;;;;;;;20.47;9.07;;;;;0.80;97795.00;;;;8267845;28;20739;-65
2022/03/21 06:19:12;;;;;;;16.53;8.87;;;;;1.10;97795.00;;;;8274715;28;20414;-67
2022/03/21 06:23:15;;;;;;;28.03;8.90;;;;;1.30;97798.00;;;;8274072;28;20233;-65
2022/03/21 06:27:18;;;;;;;21.37;9.80;;;;;1.40;97797.00;;;;8272155;28;20233;-66
2022/03/21 06:31:23;;;;;;;18.33;8.93;;;;;1.60;97810.00;;;;8281619;28;20229;-65
2022/03/21 06:35:26;;;;;;;15.83;8.50;;;;;1.70;97814.00;;;;8271745;28;20272;-67
2022/03/21 06:39:29;;;;;;;22.33;10.10;;;;;1.90;97812.00;;;;8260158;28;20242;-66
2022/03/21 06:43:32;;;;;;;18.80;9.17;;;;;2.00;97814.00;;;;8270287;28;20708;-66
2022/03/21 06:47:40;;;;;;;23.87;10.33;;;;;2.10;97827.00;;;;8264841;28;20231;-66
2022/03/21 06:51:43;;;;;;;20.17;9.77;;;;;2.30;97822.00;;;;8280492;28;20683;-65
2022/03/21 06:55:46;;;;;;;19.57;9.00;;;;;2.40;97822.00;;;;8275585;28;20702;-66
2022/03/21 06:59:49;;;;;;;20.20;8.90;;;;;2.50;97838.00;;;;8281951;28;20230;-65
2022/03/21 07:03:54;;;;;;;18.70;7.87;;;;;2.60;97834.00;;;;8272142;28;20762;-65
2022/03/21 07:07:57;;;;;;;18.27;7.50;;;;;2.70;97843.00;;;;8281604;28;20226;-66
2022/03/21 07:12:00;;;;;;;22.07;10.00;;;;;2.70;97847.00;;;;8276189;28;20233;-67
2022/03/21 07:16:03;;;;;;;16.00;7.67;;;;;2.90;97857.00;;;;8284257;28;20678;-66
2022/03/21 07:20:10;;;;;;;16.17;8.70;;;;;3.00;97861.00;;;;8281944;28;20221;-66
2022/03/21 07:24:13;;;;;;;20.40;9.20;;;;;3.10;97861.00;;;;8279342;28;20238;-65
2022/03/21 07:28:16;;;;;;;22.73;9.27;;;;;3.20;97867.00;;;;8284237;28;20699;-66
2022/03/21 07:32:19;;;;;;;21.00;9.93;;;;;3.40;97876.00;;;;8269609;28;20233;-67
2022/03/21 07:36:24;;;;;;;19.87;9.97;;;;;3.50;97876.00;;;;8269736;28;20225;-67
2022/03/21 07:40:30;;;;;;;19.77;10.10;;;;;3.60;97880.00;;;;8263897;28;20666;-69
2022/03/21 07:48:54;;;;;;;20.67;9.10;;;;;3.70;97880.00;;;;8265400;28;20240;-68
2022/03/21 07:53:01;;;;;;;17.10;8.93;;;;;3.80;97882.00;;;;8276154;28;20227;-69
2022/03/21 07:57:04;;;;;;;22.33;9.40;;;;;3.90;97888.00;;;;8277148;28;20292;-71
2022/03/21 08:01:07;;;;;;;17.03;9.20;;;;;4.10;97883.00;;;;8280726;28;20231;-68
2022/03/21 08:05:11;;;;;;;22.53;10.50;;;;;4.40;97889.00;;;;8279294;28;20823;-69
2022/03/21 08:09:16;;;;;;;16.87;8.40;;;;;4.50;97894.00;;;;8301089;28;20609;-72
2022/03/21 08:13:19;;;;;;;19.60;9.63;;;;;4.70;97894.00;;;;8302018;28;20238;-70
2022/03/21 08:17:26;;;;;;;16.47;8.43;;;;;5.00;97892.00;;;;8288190;28;20239;-70
2022/03/21 08:21:29;;;;;;;17.13;8.20;;;;;5.20;97888.00;;;;8282492;28;20230;-70
2022/03/21 08:25:33;;;;;;;20.93;9.53;;;;;5.40;97901.00;;;;8277752;28;20278;-73
2022/03/21 08:29:36;;;;;;;17.47;9.73;;;;;5.50;97889.00;;;;8270514;28;20242;-71
2022/03/21 08:33:39;;;;;;;13.87;8.17;;;;;5.70;97892.00;;;;8274888;28;20236;-72
2022/03/21 08:37:43;;;;;;;15.80;8.73;;;;;6.20;97899.00;;;;8285076;28;20227;-72
2022/03/21 08:41:47;;;;;;;12.40;8.07;;;;;6.70;97886.00;;;;8290867;28;20224;-74
2022/03/21 08:45:51;;;;;;;17.67;8.73;;;;;7.00;97892.00;;;;8268345;28;20244;-71
2022/03/21 08:49:54;;;;;;;15.87;8.07;;;;;7.50;97897.00;;;;8270371;28;20237;-77
2022/03/21 08:53:56;;;;;;;16.27;7.63;;;;;8.10;97896.00;;;;8396146;28;20312;-75
2022/03/21 08:58:47;;;;;;;17.40;7.97;;;;;8.60;97903.00;;;;8416519;28;20820;-75
2022/03/21 09:02:52;;;;;;;12.10;7.63;;;;;9.10;97903.00;;;;8399898;28;20226;-75
2022/03/21 09:06:55;;;;;;;12.87;7.43;;;;;9.50;97893.00;;;;8412123;28;20219;-75
2022/03/21 09:10:58;;;;;;;10.43;6.33;;;;;9.80;97897.00;;;;8397274;28;20223;-74
2022/03/21 09:15:03;;;;;;;14.97;7.83;;;;;9.90;97892.00;;;;8415073;28;20584;-72
2022/03/21 09:19:07;;;;;;;11.43;7.07;;;;;10.20;97890.00;;;;8414844;28;20906;-73
2022/03/21 09:23:10;;;;;;;14.47;7.70;;;;;10.60;97885.00;;;;8413210;28;20227;-73
2022/03/21 09:27:13;;;;;;;14.23;7.30;;;;;11.00;97892.00;;;;8418482;28;20687;-74
2022/03/21 09:31:17;;;;;;;11.73;6.87;;;;;11.60;97896.00;;;;8413890;28;20230;-75
2022/03/21 09:35:40;;;;;;;10.73;7.00;;;;;12.40;97900.00;;;;8410417;28;20246;-73
2022/03/21 09:39:43;;;;;;;9.90;6.67;;;;;12.90;97888.00;;;;8404538;28;20231;-75
2022/03/21 09:43:46;;;;;;;13.43;7.40;;;;;13.40;97888.00;;;;8409159;28;20239;-72
2022/03/21 09:52:11;;;;;;;18.45;7.57;;;;;14.20;97889.00;;;;8408513;28;20227;-73
2022/03/21 09:56:15;;;;;;;13.05;7.05;;;;;14.30;97883.00;;;;8409101;28;20231;-71
2022/03/21 10:00:18;;;;;;;11.38;7.03;;;;;14.10;97892.00;;;;8399840;28;20238;-73
2022/03/21 10:04:22;;;;;;;11.32;5.90;;;;;14.40;97887.00;;;;8389640;28;20226;-74
2022/03/21 10:08:27;;;;;;;8.63;5.70;;;;;14.90;97902.00;;;;8407101;28;20855;-72
2022/03/21 10:12:30;;;;;;;13.73;6.93;;;;;14.90;97883.00;;;;8412344;28;20232;-76
2022/03/21 10:16:33;;;;;;;15.55;6.88;;;;;15.10;97877.00;;;;8414355;28;20681;-73
2022/03/21 10:20:38;;;;;;;9.90;6.55;;;;;15.30;97874.00;;;;8414214;28;20230;-74
2022/03/21 10:24:43;;;;;;;10.70;6.40;;;;;15.50;97873.00;;;;8415442;28;20257;-73
2022/03/21 10:28:46;;;;;;;7.97;5.55;;;;;15.50;97879.00;;;;8420294;28;20241;-75
2022/03/21 10:32:52;;;;;;;10.93;6.53;;;;;15.30;97877.00;;;;8415912;28;20291;-72
2022/03/21 10:37:01;;;;;;;12.30;6.30;;;;;15.10;97868.00;;;;8418328;28;20225;-72
2022/03/21 10:41:08;;;;;;;11.50;7.32;;;;;14.90;97873.00;;;;8421659;28;20217;-72
2022/03/21 10:45:11;;;;;;;10.18;6.13;;;;;15.20;97881.00;;;;8418819;28;20230;-73
2022/03/21 10:49:14;;;;;;;10.38;6.38;;;;;15.10;97875.00;;;;8416091;28;20229;-72
2022/03/21 10:53:20;;;;;;;9.18;5.55;;;;;15.10;97872.00;;;;8418441;28;20229;-73
2022/03/21 10:57:30;;;;;;;8.68;6.03;;;;;14.70;97869.00;;;;8415645;28;20229;-73
2022/03/21 11:01:32;;;;;;;10.02;6.70;;;;;14.40;97861.00;;;;8421780;28;20233;-73
2022/03/21 11:05:37;;;;;;;11.85;6.25;;;;;14.40;97863.00;;;;8420186;28;20275;-71
2022/03/21 11:09:42;;;;;;;9.68;6.60;;;;;14.20;97862.00;;;;8413672;28;20705;-72
2022/03/21 11:13:46;;;;;;;12.93;7.38;;;;;13.80;97863.00;;;;8411019;28;20247;-73
2022/03/21 11:17:49;;;;;;;12.43;7.28;;;;;13.90;97854.00;;;;8411214;28;20224;-72
2022/03/21 11:21:54;;;;;;;11.85;6.53;;;;;13.80;97856.00;;;;8415349;28;20915;-73
2022/03/21 11:26:03;;;;;;;12.00;7.07;;;;;13.80;97849.00;;;;8423638;28;20723;-73
2022/03/21 11:30:14;;;;;;;9.95;6.28;;;;;14.30;97853.00;;;;8415095;28;20239;-73
2022/03/21 11:34:35;;;;;;;12.73;6.82;;;;;14.40;97848.00;;;;8414456;28;20805;-73
2022/03/21 11:38:45;;;;;;;11.20;6.38;;;;;14.50;97850.00;;;;8410152;28;20283;-73
2022/03/21 11:42:49;;;;;;;12.45;7.35;;;;;14.50;97843.00;;;;8408926;28;20220;-73
2022/03/21 11:46:52;;;;;;;14.80;7.15;;;;;14.30;97841.00;;;;8413837;28;20316;-73
2022/03/21 11:51:29;;;;;;;14.55;7.80;;;;;14.20;97835.00;;;;8413753;28;20271;-73
2022/03/21 11:55:37;;;;;;;12.63;7.28;;;;;14.00;97834.00;;;;8402420;28;20231;-73
2022/03/21 12:00:14;;;;;;;9.18;6.20;;;;;14.10;97841.00;;;;8407102;28;20611;-73
2022/03/21 12:04:28;;;;;;;10.65;6.95;;;;;13.90;97824.00;;;;8413106;28;20232;-72
2022/03/21 12:08:48;;;;;;;9.35;6.97;;;;;14.00;97819.00;;;;8415151;28;20290;-72
2022/03/21 12:12:55;;;;;;;11.20;7.10;;;;;13.90;97818.00;;;;8402721;28;20234;-72
2022/03/21 12:17:37;;;;;;;14.35;6.90;;;;;14.10;97814.00;;;;8410062;28;20222;-73
2022/03/21 12:21:42;;;;;;;10.32;6.40;;;;;14.30;97812.00;;;;8402081;28;20232;-73
2022/03/21 12:25:50;;;;;;;8.88;6.70;;;;;14.30;97812.00;;;;8406767;28;20221;-72
2022/03/21 12:29:53;;;;;;;10.52;6.32;;;;;14.40;97805.00;;;;8413671;28;20231;-73
2022/03/21 12:34:29;;;;;;;10.95;6.90;;;;;14.40;97800.00;;;;8416024;28;20225;-72
2022/03/21 12:38:37;;;;;;;11.20;6.85;;;;;14.60;97801.00;;;;8410149;28;20260;-73
2022/03/21 12:42:45;;;;;;;10.48;6.97;;;;;14.70;97804.00;;;;8412987;28;20273;-73
2022/03/21 12:46:48;;;;;;;11.10;7.22;;;;;14.70;97798.00;;;;8411936;28;20303;-73
2022/03/21 12:50:53;;;;;;;12.43;8.23;;;;;14.60;97792.00;;;;8399372;28;20236;-72
2022/03/21 12:54:58;;;;;;;14.65;7.88;;;;;14.50;97786.00;;;;8412806;28;20233;-72
2022/03/21 12:59:04;;;;;;;12.88;7.63;;;;;14.50;97785.00;;;;8412110;28;20286;-73
2022/03/21 13:03:08;;;;;;;11.35;6.40;;;;;14.60;97782.00;;;;8412395;28;20656;-72
2022/03/21 13:11:36;;;;;;;12.73;7.68;;;;;15.10;97783.00;;;;8410453;28;20588;-72
2022/03/21 13:15:40;;;;;;;19.40;9.13;;;;;15.20;97782.00;;;;8410768;28;20230;-72
2022/03/21 13:19:43;;;;;;;16.05;8.27;;;;;15.10;97777.00;;;;8411832;28;20274;-72
2022/03/21 13:23:47;;;;;;;15.15;8.27;;;;;15.10;97769.00;;;;8411836;28;20997;-74
2022/03/21 13:27:52;;;;;;;18.15;9.07;;;;;15.20;97777.00;;;;8408593;28;20231;-73
2022/03/21 13:31:56;;;;;;;16.15;8.70;;;;;15.20;97766.00;;;;8410215;28;20248;-75
2022/03/21 13:36:02;;;;;;;16.73;9.35;;;;;15.20;97770.00;;;;8411237;28;20868;-75
2022/03/21 13:40:07;;;;;;;14.73;8.30;;;;;15.30;97765.00;;;;8411587;28;20238;-71
2022/03/21 13:44:12;;;;;;;13.20;8.52;;;;;15.50;97773.00;;;;8414311;28;20722;-70
2022/03/21 13:48:33;;;;;;;14.93;8.43;;;;;15.60;97760.00;;;;8412711;28;20227;-71
2022/03/21 13:52:43;;;;;;;11.85;8.18;;;;;15.70;97766.00;;;;8413801;28;20235;-73
2022/03/21 13:56:50;;;;;;;15.20;8.60;;;;;15.70;97765.00;;;;8413447;28;20223;-71
2022/03/21 14:00:56;;;;;;;12.98;8.70;;;;;15.80;97761.00;;;;8405810;28;20553;-71
2022/03/21 14:05:11;;;;;;;17.42;8.50;;;;;15.90;97765.00;;;;8411595;28;20230;-71
2022/03/21 14:09:14;;;;;;;15.57;8.48;;;;;16.20;97765.00;;;;8405908;28;20242;-71
2022/03/21 14:13:20;;;;;;;14.80;8.18;;;;;16.50;97752.00;;;;8412531;28;20223;-72
2022/03/21 14:17:24;;;;;;;15.00;8.00;;;;;16.80;97743.00;;;;8404205;28;20234;-71
2022/03/21 14:21:29;;;;;;;18.20;8.85;;;;;16.90;97756.00;;;;8410447;28;20260;-72
2022/03/21 14:29:53;;;;;;;17.02;9.07;;;;;17.10;97750.00;;;;8397926;28;20289;-70
2022/03/21 14:33:58;;;;;;;11.90;8.20;;;;;17.30;97744.00;;;;8405740;28;20231;-70
2022/03/21 14:38:01;;;;;;;11.55;8.07;;;;;17.30;97744.00;;;;8410778;28;20227;-70
2022/03/21 14:42:04;;;;;;;13.65;8.77;;;;;17.30;97736.00;;;;8412074;28;20215;-70
2022/03/21 14:46:07;;;;;;;12.05;8.85;;;;;17.30;97743.00;;;;8411459;28;20222;-70
2022/03/21 14:50:12;;;;;;;13.75;8.55;;;;;17.20;97739.00;;;;8399069;28;20626;-71
2022/03/21 14:54:15;;;;;;;15.40;8.77;;;;;17.10;97732.00;;;;8411948;28;20249;-71
2022/03/21 14:58:18;;;;;;;14.30;8.65;;;;;17.10;97725.00;;;;8412346;28;20291;-70
2022/03/21 15:02:21;;;;;;;12.60;8.02;;;;;17.10;97725.00;;;;8410423;28;20219;-71
2022/03/21 15:06:26;;;;;;;18.38;8.82;;;;;17.20;97728.00;;;;8408444;28;20211;-71
2022/03/21 15:10:29;;;;;;;13.10;9.38;;;;;17.20;97714.00;;;;8407314;28;20215;-73
2022/03/21 15:14:32;;;;;;;12.23;8.52;;;;;17.10;97714.00;;;;8417811;28;20227;-72
2022/03/21 15:18:37;;;;;;;17.73;9.07;;;;;17.00;97718.00;;;;8418717;28;20249;-74
2022/03/21 15:22:42;;;;;;;15.88;8.55;;;;;16.90;97715.00;;;;8417309;28;20302;-71
2022/03/21 15:26:45;;;;;;;18.33;9.00;;;;;16.90;97707.00;;;;8416430;28;20246;-72
2022/03/21 15:30:49;;;;;;;14.23;8.88;;;;;16.80;97705.00;;;;8406376;28;20285;-73
2022/03/21 15:34:52;;;;;;;18.70;8.57;;;;;16.70;97702.00;;;;8406262;28;20238;-72
2022/03/21 15:43:20;;;;;;;13.10;8.20;;;;;16.70;97704.00;;;;8411718;28;20262;-72
2022/03/21 15:47:23;;;;;;;16.75;8.63;;;;;16.80;97698.00;;;;8416392;28;20234;-74
2022/03/21 15:51:26;;;;;;;15.23;8.65;;;;;16.80;97704.00;;;;8411397;28;20596;-73
2022/03/21 15:55:30;;;;;;;17.60;8.57;;;;;16.70;97704.00;;;;8417636;28;20231;-74
2022/03/21 15:59:35;;;;;;;13.68;7.82;;;;;16.50;97702.00;;;;8415727;28;20264;-72
2022/03/21 16:03:38;;;;;;;11.13;7.35;;;;;16.40;97703.00;;;;8409019;28;21073;-74
2022/03/21 16:07:42;;;;;;;11.20;7.40;;;;;16.30;97702.00;;;;8416220;28;20219;-71
2022/03/21 16:11:47;;;;;;;14.43;8.10;;;;;16.40;97707.00;;;;8400766;28;20706;-70
2022/03/21 16:15:50;;;;;;;19.00;9.63;;;;;16.50;97702.00;;;;8409109;28;20234;-71
2022/03/21 16:19:54;;;;;;;21.08;10.85;;;;;16.50;97704.00;;;;8399737;28;20222;-71
2022/03/21 16:23:57;;;;;;;23.50;16.08;;;;;16.10;97704.00;;;;8409019;28;20626;-74
2022/03/21 16:28:01;;;;;;;15.68;9.23;;;;;15.80;97705.00;;;;8412671;28;20281;-72
2022/03/21 16:32:08;;;;;;;12.52;7.63;;;;;15.50;97698.00;;;;8413156;28;20287;-74
2022/03/21 16:36:12;;;;;;;15.80;8.15;;;;;15.10;97701.00;;;;8411579;28;20251;-73
2022/03/21 16:40:16;;;;;;;13.93;7.82;;;;;14.80;97705.00;;;;8416818;28;20760;-72
2022/03/21 16:44:21;;;;;;;13.40;7.85;;;;;14.50;97699.00;;;;8414125;28;20234;-74
2022/03/21 16:48:25;;;;;;;11.85;7.35;;;;;14.30;97697.00;;;;8410805;28;20282;-68
2022/03/21 16:52:29;;;;;;;12.65;7.57;;;;;14.00;97698.00;;;;8406265;28;20236;-69
2022/03/21 16:56:32;;;;;;;16.63;7.93;;;;;13.80;97701.00;;;;8402480;28;20242;-77
2022/03/21 17:00:37;;;;;;;17.77;8.98;;;;;13.60;97697.00;;;;8406465;28;20751;-76
2022/03/21 17:04:41;;;;;;;14.48;7.63;;;;;13.30;97702.00;;;;8411134;28;20238;-76
2022/03/21 17:08:44;;;;;;;15.45;7.95;;;;;13.10;97700.00;;;;8414196;28;20244;-76
2022/03/21 17:12:48;;;;;;;45.67;9.63;;;;;12.80;97696.00;;;;8414352;28;20236;-76
2022/03/21 17:16:52;;;;;;;14.30;9.00;;;;;12.40;97696.00;;;;8415502;28;20308;-76
2022/03/21 17:25:19;;;;;;;20.35;10.88;;;;;11.40;97692.00;;;;8413986;28;20227;-75
2022/03/21 17:29:24;;;;;;;20.33;9.38;;;;;11.00;97693.00;;;;8407632;28;20237;-73
2022/03/21 17:33:29;;;;;;;25.10;11.30;;;;;10.90;97695.00;;;;8395408;28;20686;-72
2022/03/21 17:37:32;;;;;;;18.30;9.02;;;;;10.80;97700.00;;;;8396711;28;20607;-72
2022/03/21 17:41:35;;;;;;;15.85;9.07;;;;;10.60;97692.00;;;;8409980;28;20291;-73
2022/03/21 17:45:38;;;;;;;21.23;9.83;;;;;10.10;97692.00;;;;8404503;28;20223;-75
2022/03/21 17:49:43;;;;;;;24.50;9.97;;;;;9.70;97697.00;;;;8408637;28;20695;-75
2022/03/21 17:53:46;;;;;;;20.60;8.90;;;;;9.40;97702.00;;;;8405221;28;20219;-76
2022/03/21 17:57:49;;;;;;;24.87;9.83;;;;;9.10;97700.00;;;;8407037;28;20268;-74
2022/03/21 18:01:52;;;;;;;22.03;8.93;;;;;8.90;97705.00;;;;8408926;28;20568;-75
2022/03/21 18:05:57;;;;;;;17.60;8.67;;;;;8.90;97702.00;;;;8406743;28;20947;-74
2022/03/21 18:10:00;;;;;;;16.30;8.67;;;;;8.90;97696.00;;;;8404270;28;20218;-73
2022/03/21 18:14:04;;;;;;;22.37;10.10;;;;;9.00;97698.00;;;;8403547;28;20313;-73
2022/03/21 18:18:07;;;;;;;18.50;9.37;;;;;8.90;97698.00;;;;8406450;28;20226;-73
2022/03/21 18:22:12;;;;;;;20.53;10.13;;;;;8.60;97695.00;;;;8406927;28;20272;-73
2022/03/21 18:26:15;;;;;;;20.50;10.57;;;;;8.40;97710.00;;;;8398438;28;20255;-74
2022/03/21 18:30:19;;;;;;;20.73;10.27;;;;;8.20;97701.00;;;;8398164;28;20255;-72
2022/03/21 18:34:22;;;;;;;20.83;9.90;;;;;8.10;97714.00;;;;8405691;28;20250;-75
2022/03/21 18:38:26;;;;;;;19.80;10.13;;;;;7.90;97707.00;;;;8406727;28;20237;-74
2022/03/21 18:42:30;;;;;;;24.37;10.73;;;;;7.80;97703.00;;;;8408107;28;20702;-75
2022/03/21 18:46:33;;;;;;;23.70;10.57;;;;;7.90;97710.00;;;;8407738;28;20231;-74
2022/03/21 18:50:36;;;;;;;17.77;9.67;;;;;8.00;97712.00;;;;8410499;28;20235;-74
2022/03/21 18:54:43;;;;;;;20.30;10.03;;;;;7.90;97708.00;;;;8408633;28;20789;-75
2022/03/21 18:58:47;;;;;;;22.87;12.30;;;;;7.80;97718.00;;;;8406707;28;20395;-74
2022/03/21 19:02:51;;;;;;;27.03;12.97;;;;;7.80;97714.00;;;;8392034;28;20257;-73
2022/03/21 19:06:54;;;;;;;22.23;10.30;;;;;7.70;97721.00;;;;8396960;28;20340;-75
2022/03/21 19:10:59;;;;;;;29.40;12.13;;;;;7.70;97721.00;;;;8392054;28;20541;-74
2022/03/21 19:15:03;;;;;;;22.47;11.10;;;;;7.80;97723.00;;;;8387452;28;20233;-75
2022/03/21 19:19:09;;;;;;;21.50;10.33;;;;;7.90;97722.00;;;;8394365;28;20227;-75
2022/03/21 19:23:14;;;;;;;19.47;9.87;;;;;7.90;97717.00;;;;8402538;28;20227;-73
2022/03/21 19:27:18;;;;;;;22.10;10.33;;;;;8.00;97723.00;;;;8413356;28;20232;-73
2022/03/21 19:31:22;;;;;;;22.93;10.40;;;;;7.90;97718.00;;;;8407037;28;20230;-73
2022/03/21 19:35:30;;;;;;;17.03;9.03;;;;;7.70;97720.00;;;;8405416;28;20222;-74
2022/03/21 19:39:35;;;;;;;21.20;9.73;;;;;7.70;97712.00;;;;8406649;28;20644;-73
2022/03/21 19:43:39;;;;;;;17.43;9.37;;;;;7.60;97717.00;;;;8404091;28;20240;-75
2022/03/21 19:47:44;;;;;;;19.77;11.10;;;;;7.40;97715.00;;;;8397275;28;20231;-73
2022/03/21 19:51:47;;;;;;;27.13;13.43;;;;;7.10;97715.00;;;;8403320;28;20837;-72
2022/03/21 19:55:50;;;;;;;27.47;14.37;;;;;6.80;97723.00;;;;8405053;28;20278;-74
2022/03/21 19:59:54;;;;;;;22.30;11.60;;;;;6.50;97722.00;;;;8403156;28;20910;-75
2022/03/21 20:03:57;;;;;;;29.23;17.13;;;;;6.20;97731.00;;;;8411222;28;20365;-73
2022/03/21 20:08:01;;;;;;;24.50;12.03;;;;;5.90;97725.00;;;;8403262;28;20857;-71
2022/03/21 20:12:05;;;;;;;26.07;11.23;;;;;5.70;97720.00;;;;8411560;28;20260;-71
2022/03/21 20:16:10;;;;;;;24.83;11.93;;;;;5.50;97728.00;;;;8410798;28;20825;-73
2022/03/21 20:20:14;;;;;;;27.47;12.87;;;;;5.20;97725.00;;;;8405702;28;20346;-72
2022/03/21 20:24:17;;;;;;;31.63;13.73;;;;;4.80;97724.00;;;;8395428;28;20231;-73
2022/03/21 20:28:20;;;;;;;28.37;12.77;;;;;4.70;97724.00;;;;8407962;28;20237;-71
2022/03/21 20:32:24;;;;;;;35.00;14.60;;;;;4.60;97728.00;;;;8399951;28;20225;-73
2022/03/21 20:36:27;;;;;;;30.03;12.07;;;;;4.50;97738.00;;;;8401708;28;20233;-74
2022/03/21 20:40:30;;;;;;;25.13;11.57;;;;;4.40;97723.00;;;;8404319;28;20239;-72
2022/03/21 20:44:33;;;;;;;24.57;11.50;;;;;4.30;97734.00;;;;8404668;28;20227;-72
2022/03/21 20:48:38;;;;;;;22.20;11.23;;;;;4.10;97738.00;;;;8407294;28;20285;-72
2022/03/21 20:52:43;;;;;;;25.53;12.10;;;;;4.00;97739.00;;;;8405817;28;20284;-72
2022/03/21 20:56:48;;;;;;;23.87;12.13;;;;;3.90;97742.00;;;;8399186;28;20227;-72
2022/03/21 21:00:51;;;;;;;25.73;12.60;;;;;3.70;97749.00;;;;8408459;28;20226;-72
2022/03/21 21:04:55;;;;;;;28.60;13.00;;;;;3.50;97746.00;;;;8409016;28;20249;-72